UGKO/KIU METAR and TAF weather

Enter ICAO airport designator
Station Type Date Time Source
UGKO METAR 2021/01/22 07:00 UTC NOAA

UGKO 220700Z 09014KT CAVOK 04/M03 Q1032 R25/29//50 NOSIG


Station Type Date Time Source
UGKO Decoded METAR 2021/01/22 07:00 UTC NOAA

Station name not available
Jan 22, 2021 - 02:00 AM EST / 2021.01.22 0700 UTC
Wind: from the E (090 degrees) at 16 MPH (14 KT):0
Visibility: greater than 7 mile(s):0
Temperature: 39 F (4 C)
Dew Point: 26 F (-3 C)
Relative Humidity: 60%
Pressure (altimeter): 30.47 in. Hg (1032 hPa)
ob: UGKO 220700Z 09014KT CAVOK 04/M03 Q1032 R25/29//50 NOSIG
cycle: 7

Station Type Date Time Source
UGKO TAF 2021/01/21 18:00 UTC NOAA

TAF UGKO 211700Z 2118/2218 VRB02KT 9000 SCT020 OVC050 TX09/2211Z TNM04/2204Z
TEMPO 2118/2120 SNRA
BECMG 2120/2122 08010KT CAVOK

Example: see airport list